St Pierre — FIDX — position and weather

sailwx.info

Track history (hours):
 
Tides and Currents Weather Stations Pressure Air Temp Water Temp Dewpoint Dewpoint Depression Visibility Wind Speed Wind Dir Waves Ship Positions

St Pierre

Last reported at 2015-Aug-02 09:33 UTC. Time now 2015-Aug-02 10:17 UTC.
Position N 47°17' W 002°12'.

Length 84 m; draft 6.2 m.

Type: Cargo ship. MMSI: 228024800.

Date/timePositionNaut miles runAvg speedWind from/ knotsBaromVisibWave heightAir tempDewpointWater temp
2015-Aug-02 09:33N 47°17' W 002°12'0 0.0
2015-Aug-02 08:29N 47°17' W 002°12'0 0.0
2015-Aug-02 07:33N 47°17' W 002°12'0 0.0
2015-Aug-02 06:33N 47°17' W 002°12'0 0.0
2015-Aug-02 05:34N 47°17' W 002°12'0 0.0
2015-Aug-02 04:33N 47°17' W 002°12'0 0.0
2015-Aug-02 03:34N 47°17' W 002°12'0 0.0
2015-Aug-02 02:34N 47°17' W 002°12'0 0.0
2015-Aug-02 01:33N 47°17' W 002°12'0 0.0
2015-Aug-02 00:33N 47°17' W 002°12'0 0.0
2015-Aug-01 23:33N 47°17' W 002°12'0 0.0
2015-Aug-01 22:33N 47°17' W 002°12'0 0.0
2015-Aug-01 21:34N 47°17' W 002°12'0 0.0
2015-Aug-01 20:33N 47°17' W 002°12'0 0.0
2015-Aug-01 19:32N 47°17' W 002°12'0 0.0
2015-Aug-01 18:33N 47°17' W 002°12'0 0.0
2015-Aug-01 17:33N 47°17' W 002°12'1 0.4
2015-Aug-01 14:33N 47°17' W 002°10'2 0.5
2015-Aug-01 10:11N 47°18' W 002°07'0 0.0
2015-Aug-01 09:30N 47°18' W 002°07'0 0.3
2015-Aug-01 08:33N 47°18' W 002°07'1212.4
2015-Aug-01 07:33N 47°14' W 001°50'8 8.3
2015-Aug-01 06:33N 47°12' W 001°38'0 0.0
2015-Aug-01 05:33N 47°12' W 001°38'0 0.2
2015-Aug-01 04:33N 47°12' W 001°38'1110.6
2015-Aug-01 03:33N 47°16' W 001°52'1211.5
2015-Aug-01 02:33N 47°18' W 002°09'1211.6
2015-Aug-01 01:33N 47°08' W 002°20'2 2.4
2015-Aug-01 00:33N 47°06' W 002°21'1 0.7
2015-Jul-31 23:33N 47°06' W 002°21'1 0.5
2015-Jul-31 22:33N 47°05' W 002°22'0 0.1
2015-Jul-31 21:33N 47°05' W 002°21'0 0.3
2015-Jul-31 20:34N 47°05' W 002°22'3 2.9
2015-Jul-31 19:33N 47°08' W 002°20'2 0.1
2015-Jul-31 07:14N 47°09' W 002°19'912.9
2015-Jul-31 06:33N 47°16' W 002°11'3 3.3
2015-Jul-31 05:33N 47°18' W 002°07'0 0.0
2015-Jul-31 04:33N 47°18' W 002°07'0 0.0
2015-Jul-31 03:33N 47°18' W 002°07'0 0.0
2015-Jul-31 02:33N 47°18' W 002°07'0 0.0
2015-Jul-31 01:32N 47°18' W 002°07'0 0.0
2015-Jul-31 00:33N 47°18' W 002°07'0 0.0
2015-Jul-30 23:33N 47°18' W 002°07'0 0.0
2015-Jul-30 22:33N 47°18' W 002°07'0 0.0
2015-Jul-30 21:30N 47°18' W 002°07'16 1.2
2015-Jul-30 07:30N 47°05' W 002°22'0 0.4
2015-Jul-30 06:33N 47°05' W 002°21'1 1.4
2015-Jul-30 05:33N 47°07' W 002°21'1312.7
2015-Jul-30 04:33N 47°17' W 002°10'2 2.0
2015-Jul-30 03:23N 47°18' W 002°07'0 0.0
2015-Jul-30 02:32N 47°18' W 002°07'0 0.0
2015-Jul-30 01:33N 47°18' W 002°07'0 0.0
2015-Jul-30 00:33N 47°18' W 002°07'0 0.0
2015-Jul-29 23:32N 47°18' W 002°07'9 2.2
2015-Jul-29 19:16N 47°12' W 002°17'5 0.8
2015-Jul-29 13:30N 47°16' W 002°13'12 2.3
2015-Jul-29 08:15N 47°05' W 002°22'0 0.1
2015-Jul-29 07:24N 47°05' W 002°21'0 0.1
2015-Jul-29 06:32N 47°05' W 002°22'2 2.4
2015-Jul-29 05:33N 47°07' W 002°20'1313.0
2015-Jul-29 04:33N 47°18' W 002°09'1 1.3
2015-Jul-29 03:33N 47°18' W 002°07'0 0.0
2015-Jul-29 02:33N 47°18' W 002°07'4 4.1
2015-Jul-29 01:33N 47°16' W 002°12'1111.4
2015-Jul-29 00:33N 47°06' W 002°21'0 0.3
2015-Jul-28 23:33N 47°06' W 002°20'1 0.8
2015-Jul-28 22:33N 47°06' W 002°21'1 0.8
2015-Jul-28 21:33N 47°05' W 002°22'0 0.3
2015-Jul-28 20:10N 47°05' W 002°21'17 6.3
2015-Jul-28 17:31N 47°18' W 002°06'1212.6
2015-Jul-28 16:33N 47°14' W 001°50'9 1.0
2015-Jul-28 07:09N 47°12' W 001°37'0 0.0
2015-Jul-27 21:09N 47°12' W 001°37'0 0.0
2015-Jul-27 15:25N 47°12' W 001°37'0 0.0
2015-Jul-27 14:33N 47°12' W 001°37'0 0.0
2015-Jul-27 12:31N 47°12' W 001°37'0 0.0
2015-Jul-27 11:33N 47°12' W 001°37'0 0.0
2015-Jul-27 10:29N 47°12' W 001°37'0 0.0
2015-Jul-27 09:33N 47°12' W 001°37'0 0.0
2015-Jul-26 07:15N 47°12' W 001°37'0 0.0
2015-Jul-26 06:30N 47°12' W 001°37'0 0.0
2015-Jul-26 03:29N 47°12' W 001°37'0 0.0
2015-Jul-26 02:33N 47°12' W 001°37'0 0.0
2015-Jul-26 01:33N 47°12' W 001°37'0 0.0
2015-Jul-26 00:33N 47°12' W 001°37'0 0.0
2015-Jul-25 23:33N 47°12' W 001°37'0 0.0
2015-Jul-25 22:34N 47°12' W 001°37'0 0.0
2015-Jul-25 21:33N 47°12' W 001°37'0 0.0
2015-Jul-25 20:33N 47°12' W 001°37'0 0.0
2015-Jul-25 19:33N 47°12' W 001°37'25 1.3
2015-Jul-25 00:32N 47°16' W 002°12'12 1.5
2015-Jul-24 16:33N 47°05' W 002°22'12 2.9
2015-Jul-24 12:18N 47°16' W 002°12'24 6.2
2015-Jul-24 08:29N 47°12' W 001°38'0 0.0
2015-Jul-24 07:33N 47°12' W 001°38'0 0.0
2015-Jul-24 06:33N 47°12' W 001°38'0 0.0
2015-Jul-24 05:33N 47°12' W 001°38'0 0.0
2015-Jul-24 04:30N 47°12' W 001°38'0 0.0
2015-Jul-24 03:33N 47°12' W 001°38'0 0.0
2015-Jul-24 02:33N 47°12' W 001°38'0 0.0
2015-Jul-24 01:33N 47°12' W 001°38'0 0.0
2015-Jul-24 00:33N 47°12' W 001°38'0 0.0
2015-Jul-23 23:33N 47°12' W 001°38'0 0.0
2015-Jul-23 22:33N 47°12' W 001°38'0 0.0
2015-Jul-23 21:33N 47°12' W 001°38'0 0.0
2015-Jul-23 20:33N 47°12' W 001°38'2 1.5
2015-Jul-23 19:33N 47°12' W 001°40'1111.2
2015-Jul-23 18:33N 47°17' W 001°55'1111.2
2015-Jul-23 17:33N 47°16' W 002°11'1313.0
2015-Jul-23 16:33N 47°05' W 002°22'0 0.4
2015-Jul-23 15:30N 47°05' W 002°22'0 0.0
2015-Jul-23 14:33N 47°05' W 002°22'0 0.3
2015-Jul-23 13:33N 47°05' W 002°21'0 0.2
2015-Jul-23 12:33N 47°05' W 002°22'10 9.7
2015-Jul-23 11:33N 47°14' W 002°16'1611.7
2015-Jul-23 10:12N 47°16' W 001°53'  
Track history (hours):
 
Tides and Currents Weather Stations Pressure Air Temp Water Temp Dewpoint Dewpoint Depression Visibility Wind Speed Wind Dir Waves Ship Positions

St Pierre

Last reported at 2015-Aug-02 09:33 UTC. Time now 2015-Aug-02 10:17 UTC.
Position N 47°17' W 002°12'.

Length 84 m; draft 6.2 m.

Type: Cargo ship. MMSI: 228024800.

Date/timePositionNaut miles runAvg speedWind from/ knotsBaromVisibWave heightAir tempDewpointWater temp
2015-Aug-02 09:33N 47°17' W 002°12'0 0.0
2015-Aug-02 08:29N 47°17' W 002°12'0 0.0
2015-Aug-02 07:33N 47°17' W 002°12'0 0.0
2015-Aug-02 06:33N 47°17' W 002°12'0 0.0
2015-Aug-02 05:34N 47°17' W 002°12'0 0.0
2015-Aug-02 04:33N 47°17' W 002°12'0 0.0
2015-Aug-02 03:34N 47°17' W 002°12'0 0.0
2015-Aug-02 02:34N 47°17' W 002°12'0 0.0
2015-Aug-02 01:33N 47°17' W 002°12'0 0.0
2015-Aug-02 00:33N 47°17' W 002°12'0 0.0
2015-Aug-01 23:33N 47°17' W 002°12'0 0.0
2015-Aug-01 22:33N 47°17' W 002°12'0 0.0
2015-Aug-01 21:34N 47°17' W 002°12'0 0.0
2015-Aug-01 20:33N 47°17' W 002°12'0 0.0
2015-Aug-01 19:32N 47°17' W 002°12'0 0.0
2015-Aug-01 18:33N 47°17' W 002°12'0 0.0
2015-Aug-01 17:33N 47°17' W 002°12'1 0.4
2015-Aug-01 14:33N 47°17' W 002°10'2 0.5
2015-Aug-01 10:11N 47°18' W 002°07'0 0.0
2015-Aug-01 09:30N 47°18' W 002°07'0 0.3
2015-Aug-01 08:33N 47°18' W 002°07'1212.4
2015-Aug-01 07:33N 47°14' W 001°50'8 8.3
2015-Aug-01 06:33N 47°12' W 001°38'0 0.0
2015-Aug-01 05:33N 47°12' W 001°38'0 0.2
2015-Aug-01 04:33N 47°12' W 001°38'1110.6
2015-Aug-01 03:33N 47°16' W 001°52'1211.5
2015-Aug-01 02:33N 47°18' W 002°09'1211.6
2015-Aug-01 01:33N 47°08' W 002°20'2 2.4
2015-Aug-01 00:33N 47°06' W 002°21'1 0.7
2015-Jul-31 23:33N 47°06' W 002°21'1 0.5
2015-Jul-31 22:33N 47°05' W 002°22'0 0.1
2015-Jul-31 21:33N 47°05' W 002°21'0 0.3
2015-Jul-31 20:34N 47°05' W 002°22'3 2.9
2015-Jul-31 19:33N 47°08' W 002°20'2 0.1
2015-Jul-31 07:14N 47°09' W 002°19'912.9
2015-Jul-31 06:33N 47°16' W 002°11'3 3.3
2015-Jul-31 05:33N 47°18' W 002°07'0 0.0
2015-Jul-31 04:33N 47°18' W 002°07'0 0.0
2015-Jul-31 03:33N 47°18' W 002°07'0 0.0
2015-Jul-31 02:33N 47°18' W 002°07'0 0.0
2015-Jul-31 01:32N 47°18' W 002°07'0 0.0
2015-Jul-31 00:33N 47°18' W 002°07'0 0.0
2015-Jul-30 23:33N 47°18' W 002°07'0 0.0
2015-Jul-30 22:33N 47°18' W 002°07'0 0.0
2015-Jul-30 21:30N 47°18' W 002°07'16 1.2
2015-Jul-30 07:30N 47°05' W 002°22'0 0.4
2015-Jul-30 06:33N 47°05' W 002°21'1 1.4
2015-Jul-30 05:33N 47°07' W 002°21'1312.7
2015-Jul-30 04:33N 47°17' W 002°10'2 2.0
2015-Jul-30 03:23N 47°18' W 002°07'0 0.0
2015-Jul-30 02:32N 47°18' W 002°07'0 0.0
2015-Jul-30 01:33N 47°18' W 002°07'0 0.0
2015-Jul-30 00:33N 47°18' W 002°07'0 0.0
2015-Jul-29 23:32N 47°18' W 002°07'9 2.2
2015-Jul-29 19:16N 47°12' W 002°17'5 0.8
2015-Jul-29 13:30N 47°16' W 002°13'12 2.3
2015-Jul-29 08:15N 47°05' W 002°22'0 0.1
2015-Jul-29 07:24N 47°05' W 002°21'0 0.1
2015-Jul-29 06:32N 47°05' W 002°22'2 2.4
2015-Jul-29 05:33N 47°07' W 002°20'1313.0
2015-Jul-29 04:33N 47°18' W 002°09'1 1.3
2015-Jul-29 03:33N 47°18' W 002°07'0 0.0
2015-Jul-29 02:33N 47°18' W 002°07'4 4.1
2015-Jul-29 01:33N 47°16' W 002°12'1111.4
2015-Jul-29 00:33N 47°06' W 002°21'0 0.3
2015-Jul-28 23:33N 47°06' W 002°20'1 0.8
2015-Jul-28 22:33N 47°06' W 002°21'1 0.8
2015-Jul-28 21:33N 47°05' W 002°22'0 0.3
2015-Jul-28 20:10N 47°05' W 002°21'17 6.3
2015-Jul-28 17:31N 47°18' W 002°06'1212.6
2015-Jul-28 16:33N 47°14' W 001°50'9 1.0
2015-Jul-28 07:09N 47°12' W 001°37'0 0.0
2015-Jul-27 21:09N 47°12' W 001°37'0 0.0
2015-Jul-27 15:25N 47°12' W 001°37'0 0.0
2015-Jul-27 14:33N 47°12' W 001°37'0 0.0
2015-Jul-27 12:31N 47°12' W 001°37'0 0.0
2015-Jul-27 11:33N 47°12' W 001°37'0 0.0
2015-Jul-27 10:29N 47°12' W 001°37'0 0.0
2015-Jul-27 09:33N 47°12' W 001°37'0 0.0
2015-Jul-26 07:15N 47°12' W 001°37'0 0.0
2015-Jul-26 06:30N 47°12' W 001°37'0 0.0
2015-Jul-26 03:29N 47°12' W 001°37'0 0.0
2015-Jul-26 02:33N 47°12' W 001°37'0 0.0
2015-Jul-26 01:33N 47°12' W 001°37'0 0.0
2015-Jul-26 00:33N 47°12' W 001°37'0 0.0
2015-Jul-25 23:33N 47°12' W 001°37'0 0.0
2015-Jul-25 22:34N 47°12' W 001°37'0 0.0
2015-Jul-25 21:33N 47°12' W 001°37'0 0.0
2015-Jul-25 20:33N 47°12' W 001°37'0 0.0
2015-Jul-25 19:33N 47°12' W 001°37'25 1.3
2015-Jul-25 00:32N 47°16' W 002°12'12 1.5
2015-Jul-24 16:33N 47°05' W 002°22'12 2.9
2015-Jul-24 12:18N 47°16' W 002°12'24 6.2
2015-Jul-24 08:29N 47°12' W 001°38'0 0.0
2015-Jul-24 07:33N 47°12' W 001°38'0 0.0
2015-Jul-24 06:33N 47°12' W 001°38'0 0.0
2015-Jul-24 05:33N 47°12' W 001°38'0 0.0
2015-Jul-24 04:30N 47°12' W 001°38'0 0.0
2015-Jul-24 03:33N 47°12' W 001°38'0 0.0
2015-Jul-24 02:33N 47°12' W 001°38'0 0.0
2015-Jul-24 01:33N 47°12' W 001°38'0 0.0
2015-Jul-24 00:33N 47°12' W 001°38'0 0.0
2015-Jul-23 23:33N 47°12' W 001°38'0 0.0
2015-Jul-23 22:33N 47°12' W 001°38'0 0.0
2015-Jul-23 21:33N 47°12' W 001°38'0 0.0
2015-Jul-23 20:33N 47°12' W 001°38'2 1.5
2015-Jul-23 19:33N 47°12' W 001°40'1111.2
2015-Jul-23 18:33N 47°17' W 001°55'1111.2
2015-Jul-23 17:33N 47°16' W 002°11'1313.0
2015-Jul-23 16:33N 47°05' W 002°22'0 0.4
2015-Jul-23 15:30N 47°05' W 002°22'0 0.0
2015-Jul-23 14:33N 47°05' W 002°22'0 0.3
2015-Jul-23 13:33N 47°05' W 002°21'0 0.2
2015-Jul-23 12:33N 47°05' W 002°22'10 9.7
2015-Jul-23 11:33N 47°14' W 002°16'1611.7
2015-Jul-23 10:12N 47°16' W 001°53'  

Dump ship's entire track history